createdAt,value
2017-09-25T00:00:09.343Z,1017.35
2017-09-25T00:01:18.627Z,1017.32
2017-09-25T00:02:27.602Z,1017.34
2017-09-25T00:03:37.231Z,1017.33
2017-09-25T00:04:45.894Z,1017.33
2017-09-25T00:05:55.949Z,1017.31
2017-09-25T00:07:04.924Z,1017.33
2017-09-25T00:08:14.204Z,1017.32
2017-09-25T00:09:23.798Z,1017.3
2017-09-25T00:10:32.769Z,1017.33
2017-09-25T00:11:41.527Z,1017.35
2017-09-25T00:12:50.483Z,1017.33
2017-09-25T00:13:59.460Z,1017.35
2017-09-25T00:15:08.438Z,1017.33
2017-09-25T00:16:18.028Z,1017.3
2017-09-25T00:17:26.986Z,1017.31
2017-09-25T00:18:35.961Z,1017.3
2017-09-25T00:19:45.248Z,1017.3
2017-09-25T00:20:54.849Z,1017.29
2017-09-25T00:22:03.816Z,1017.28
2017-09-25T00:23:12.793Z,1017.3
2017-09-25T00:24:21.756Z,1017.25
2017-09-25T00:25:31.375Z,1017.26
2017-09-25T00:26:40.687Z,1017.29
2017-09-25T00:27:49.962Z,1017.23
2017-09-25T00:28:59.117Z,1017.2
2017-09-25T00:30:08.078Z,1017.23
2017-09-25T00:31:16.726Z,1017.18
2017-09-25T00:32:26.010Z,1017.14
2017-09-25T00:33:35.330Z,1017.15
2017-09-25T00:34:44.845Z,1017.16
2017-09-25T00:35:54.125Z,1017.16
2017-09-25T00:37:03.137Z,1017.16
2017-09-25T00:38:12.417Z,1017.14
2017-09-25T00:39:21.684Z,1017.13
2017-09-25T00:40:30.644Z,1017.13
2017-09-25T00:41:40.232Z,1017.12
2017-09-25T00:42:48.943Z,1017.12
2017-09-25T00:43:57.916Z,1017.11
2017-09-25T00:45:07.212Z,1017.12
2017-09-25T00:46:16.005Z,1017.09
2017-09-25T00:47:25.280Z,1017.08
2017-09-25T00:48:33.945Z,1017.13
2017-09-25T00:49:43.225Z,1017.12
2017-09-25T00:50:52.538Z,1017.11
2017-09-25T00:52:01.202Z,1017.14
2017-09-25T00:53:10.847Z,1017.12
2017-09-25T00:54:20.134Z,1017.11
2017-09-25T00:55:28.784Z,1017.16
2017-09-25T00:56:37.779Z,1017.14
2017-09-25T00:57:46.887Z,1017.11
2017-09-25T00:58:55.856Z,1017.12
2017-09-25T01:00:04.543Z,1017.14
2017-09-25T01:01:13.191Z,1017.13
2017-09-25T01:02:22.513Z,1017.15
2017-09-25T01:03:32.090Z,1017.12
2017-09-25T01:04:41.695Z,1017.14
2017-09-25T01:05:50.672Z,1017.12
2017-09-25T01:06:59.975Z,1017.15
2017-09-25T01:08:09.256Z,1017.15
2017-09-25T01:09:18.945Z,1017.14
2017-09-25T01:10:27.910Z,1017.14
2017-09-25T01:11:37.206Z,1017.13
2017-09-25T01:12:47.125Z,1017.12
2017-09-25T01:13:56.092Z,1017.15
2017-09-25T01:15:04.900Z,1017.14
2017-09-25T01:16:13.590Z,1017.12
2017-09-25T01:17:22.556Z,1017.12
2017-09-25T01:18:32.778Z,1017.12
2017-09-25T01:19:42.078Z,1017.13
2017-09-25T01:20:50.721Z,1017.12
2017-09-25T01:22:00.019Z,1017.11
2017-09-25T01:23:09.001Z,1017.12
2017-09-25T01:24:17.967Z,1017.11
2017-09-25T01:25:27.248Z,1017.13
2017-09-25T01:26:36.540Z,1017.09
2017-09-25T01:27:45.500Z,1017.1
2017-09-25T01:28:54.786Z,1017.13
2017-09-25T01:30:04.081Z,1017.14
2017-09-25T01:31:13.663Z,1017.16
2017-09-25T01:32:23.106Z,1017.14
2017-09-25T01:33:31.763Z,1017.14
2017-09-25T01:34:41.040Z,1017.14
2017-09-25T01:35:49.996Z,1017.14
2017-09-25T01:36:58.646Z,1017.1
2017-09-25T01:38:07.718Z,1017.12
2017-09-25T01:39:16.992Z,1017.11
2017-09-25T01:40:25.653Z,1017.16
2017-09-25T01:41:34.673Z,1017.12
2017-09-25T01:42:43.641Z,1017.12
2017-09-25T01:43:52.919Z,1017.16
2017-09-25T01:45:02.510Z,1017.12
2017-09-25T01:46:11.505Z,1017.13
2017-09-25T01:47:20.172Z,1017.11
2017-09-25T01:48:29.137Z,1017.1
2017-09-25T01:49:38.406Z,1017.07
2017-09-25T01:50:47.397Z,1017.09
2017-09-25T01:51:56.678Z,1017.07
2017-09-25T01:53:05.636Z,1017.05
2017-09-25T01:54:14.952Z,1017.09
2017-09-25T01:55:23.688Z,1017.03
2017-09-25T01:56:32.362Z,1017.05
2017-09-25T01:57:41.330Z,1017.01
2017-09-25T01:58:50.912Z,1017
2017-09-25T01:59:59.868Z,1016.97
2017-09-25T02:01:08.984Z,1016.93
2017-09-25T02:02:18.578Z,1016.91
2017-09-25T02:03:27.226Z,1016.92
2017-09-25T02:04:35.898Z,1016.91
2017-09-25T02:05:45.185Z,1016.9
2017-09-25T02:06:54.241Z,1016.87
2017-09-25T02:08:02.894Z,1016.85
2017-09-25T02:09:12.184Z,1016.87
2017-09-25T02:10:20.817Z,1016.84
2017-09-25T02:11:29.471Z,1016.87
2017-09-25T02:12:38.435Z,1016.86
2017-09-25T02:13:47.087Z,1016.88
2017-09-25T02:14:56.376Z,1016.82
2017-09-25T02:16:05.347Z,1016.88
2017-09-25T02:17:14.331Z,1016.87
2017-09-25T02:18:24.232Z,1016.86
2017-09-25T02:19:32.881Z,1016.9
2017-09-25T02:20:41.843Z,1016.87
2017-09-25T02:21:50.799Z,1016.92
2017-09-25T02:23:00.396Z,1016.92
2017-09-25T02:24:09.040Z,1016.9
2017-09-25T02:25:18.309Z,1016.88
2017-09-25T02:26:26.954Z,1016.9
2017-09-25T02:27:35.920Z,1016.89
2017-09-25T02:28:44.917Z,1016.89
2017-09-25T02:29:54.020Z,1016.91
2017-09-25T02:31:02.674Z,1016.89
2017-09-25T02:32:11.964Z,1016.92
2017-09-25T02:33:20.920Z,1016.89
2017-09-25T02:34:29.885Z,1016.9
2017-09-25T02:35:39.487Z,1016.87
2017-09-25T02:36:48.140Z,1016.87
2017-09-25T02:37:57.416Z,1016.89
2017-09-25T02:39:06.074Z,1016.86
2017-09-25T02:40:15.373Z,1016.84
2017-09-25T02:41:24.364Z,1016.84
2017-09-25T02:42:33.951Z,1016.9
2017-09-25T02:43:42.915Z,1016.88
2017-09-25T02:44:51.565Z,1016.88
2017-09-25T02:46:00.234Z,1016.89
2017-09-25T02:47:09.498Z,1016.89
2017-09-25T02:48:18.495Z,1016.86
2017-09-25T02:49:28.055Z,1016.89
2017-09-25T02:50:37.676Z,1016.92
2017-09-25T02:51:46.943Z,1016.92
2017-09-25T02:52:55.901Z,1016.92
2017-09-25T02:54:05.182Z,1016.93
2017-09-25T02:55:14.150Z,1016.92
2017-09-25T02:56:23.103Z,1016.96
2017-09-25T02:57:32.701Z,1016.93
2017-09-25T02:58:41.687Z,1016.96
2017-09-25T02:59:50.674Z,1016.99
2017-09-25T03:00:59.383Z,1016.92
2017-09-25T03:02:08.667Z,1016.99
2017-09-25T03:03:17.941Z,1016.94
2017-09-25T03:04:27.451Z,1016.96
2017-09-25T03:05:36.427Z,1016.95
2017-09-25T03:06:45.115Z,1016.95
2017-09-25T03:07:54.709Z,1016.94
2017-09-25T03:09:03.993Z,1016.94
2017-09-25T03:10:12.960Z,1016.93
2017-09-25T03:11:21.915Z,1016.93
2017-09-25T03:12:30.864Z,1016.94
2017-09-25T03:13:39.529Z,1016.93
2017-09-25T03:14:48.193Z,1016.93
2017-09-25T03:15:57.458Z,1016.92
2017-09-25T03:17:06.133Z,1016.94
2017-09-25T03:18:15.103Z,1016.92
2017-09-25T03:19:25.054Z,1016.93
2017-09-25T03:20:34.038Z,1016.89
2017-09-25T03:21:43.313Z,1016.94
2017-09-25T03:22:51.963Z,1016.89
2017-09-25T03:24:00.931Z,1016.87
2017-09-25T03:25:09.591Z,1016.86
2017-09-25T03:26:18.239Z,1016.88
2017-09-25T03:27:27.518Z,1016.88
2017-09-25T03:28:37.121Z,1016.84
2017-09-25T03:29:46.393Z,1016.81
2017-09-25T03:30:55.370Z,1016.81
2017-09-25T03:32:04.979Z,1016.82
2017-09-25T03:33:13.928Z,1016.82
2017-09-25T03:34:22.889Z,1016.86
2017-09-25T03:35:32.159Z,1016.87
2017-09-25T03:36:40.803Z,1016.84
2017-09-25T03:37:49.793Z,1016.85
2017-09-25T03:38:59.063Z,1016.86
2017-09-25T03:40:08.979Z,1016.88
2017-09-25T03:41:17.630Z,1016.84
2017-09-25T03:42:26.585Z,1016.88
2017-09-25T03:43:35.862Z,1016.84
2017-09-25T03:44:44.618Z,1016.8
2017-09-25T03:45:54.199Z,1016.76
2017-09-25T03:47:03.786Z,1016.77
2017-09-25T03:48:12.743Z,1016.75
2017-09-25T03:49:21.727Z,1016.79
2017-09-25T03:50:31.315Z,1016.77
2017-09-25T03:51:40.283Z,1016.79
2017-09-25T03:52:49.559Z,1016.73
2017-09-25T03:53:58.515Z,1016.72
2017-09-25T03:55:07.810Z,1016.72
2017-09-25T03:56:16.496Z,1016.72
2017-09-25T03:57:25.456Z,1016.67
2017-09-25T03:58:34.746Z,1016.67
2017-09-25T03:59:43.400Z,1016.66
2017-09-25T04:00:52.052Z,1016.69
2017-09-25T04:02:01.626Z,1016.67
2017-09-25T04:03:11.238Z,1016.64
2017-09-25T04:04:20.197Z,1016.66
2017-09-25T04:05:29.469Z,1016.65
2017-09-25T04:06:38.756Z,1016.62
2017-09-25T04:07:48.189Z,1016.63
2017-09-25T04:08:57.152Z,1016.62
2017-09-25T04:10:06.754Z,1016.61
2017-09-25T04:11:15.425Z,1016.56
2017-09-25T04:12:24.069Z,1016.56
2017-09-25T04:13:33.180Z,1016.54
2017-09-25T04:14:42.463Z,1016.53
2017-09-25T04:15:51.097Z,1016.53
2017-09-25T04:16:59.754Z,1016.56
2017-09-25T04:18:09.371Z,1016.56
2017-09-25T04:19:18.333Z,1016.57
2017-09-25T04:20:27.605Z,1016.54
2017-09-25T04:21:36.273Z,1016.55
2017-09-25T04:22:45.321Z,1016.59
2017-09-25T04:23:53.979Z,1016.58
2017-09-25T04:25:02.919Z,1016.54
2017-09-25T04:26:11.904Z,1016.53
2017-09-25T04:27:21.485Z,1016.53
2017-09-25T04:28:30.451Z,1016.58
2017-09-25T04:29:40.068Z,1016.55
2017-09-25T04:30:49.345Z,1016.52
2017-09-25T04:31:58.933Z,1016.56
2017-09-25T04:33:07.608Z,1016.53
2017-09-25T04:34:16.912Z,1016.54
2017-09-25T04:35:26.188Z,1016.56
2017-09-25T04:36:35.208Z,1016.52
2017-09-25T04:37:43.880Z,1016.52
2017-09-25T04:38:53.298Z,1016.55
2017-09-25T04:40:02.599Z,1016.54
2017-09-25T04:41:12.724Z,1016.55
2017-09-25T04:42:21.933Z,1016.58
2017-09-25T04:43:31.299Z,1016.55
2017-09-25T04:44:40.639Z,1016.6
2017-09-25T04:45:49.911Z,1016.59
2017-09-25T04:46:59.503Z,1016.58
2017-09-25T04:48:08.523Z,1016.53
2017-09-25T04:49:18.122Z,1016.56
2017-09-25T04:50:27.119Z,1016.47
2017-09-25T04:51:37.030Z,1016.49
2017-09-25T04:52:46.625Z,1016.5
2017-09-25T04:53:55.372Z,1016.51
2017-09-25T04:55:04.662Z,1016.48
2017-09-25T04:56:13.658Z,1016.46
2017-09-25T04:57:22.949Z,1016.48
2017-09-25T04:58:32.256Z,1016.49
2017-09-25T04:59:42.169Z,1016.47
2017-09-25T05:00:51.152Z,1016.46
2017-09-25T05:01:59.810Z,1016.48
2017-09-25T05:03:09.100Z,1016.48
2017-09-25T05:04:18.083Z,1016.49
2017-09-25T05:05:26.913Z,1016.46
2017-09-25T05:06:35.900Z,1016.46
2017-09-25T05:07:44.904Z,1016.45
2017-09-25T05:08:53.601Z,1016.47
2017-09-25T05:10:02.251Z,1016.44
2017-09-25T05:11:11.061Z,1016.46
2017-09-25T05:12:20.399Z,1016.48
2017-09-25T05:13:29.379Z,1016.49
2017-09-25T05:14:38.650Z,1016.47
2017-09-25T05:15:47.648Z,1016.46
2017-09-25T05:16:57.098Z,1016.44
2017-09-25T05:18:06.121Z,1016.44
2017-09-25T05:19:15.419Z,1016.47
2017-09-25T05:20:24.078Z,1016.48
2017-09-25T05:21:33.057Z,1016.47
2017-09-25T05:22:42.061Z,1016.47
2017-09-25T05:23:51.378Z,1016.48
2017-09-25T05:25:00.114Z,1016.5
2017-09-25T05:26:09.552Z,1016.47
2017-09-25T05:27:19.261Z,1016.51
2017-09-25T05:28:28.390Z,1016.48
2017-09-25T05:29:37.706Z,1016.48
2017-09-25T05:30:47.003Z,1016.49
2017-09-25T05:31:55.651Z,1016.47
2017-09-25T05:33:04.378Z,1016.49
2017-09-25T05:34:13.363Z,1016.49
2017-09-25T05:35:22.009Z,1016.54
2017-09-25T05:36:31.618Z,1016.57
2017-09-25T05:37:41.234Z,1016.52
2017-09-25T05:38:50.541Z,1016.55
2017-09-25T05:39:59.526Z,1016.54
2017-09-25T05:41:08.552Z,1016.58
2017-09-25T05:42:17.859Z,1016.58
2017-09-25T05:43:26.535Z,1016.63
2017-09-25T05:44:35.496Z,1016.6
2017-09-25T05:45:44.789Z,1016.63
2017-09-25T05:46:53.461Z,1016.62
2017-09-25T05:48:03.386Z,1016.65
2017-09-25T05:49:12.684Z,1016.64
2017-09-25T05:50:21.363Z,1016.65
2017-09-25T05:51:31.251Z,1016.65
2017-09-25T05:52:39.903Z,1016.67
2017-09-25T05:53:49.529Z,1016.65
2017-09-25T05:54:58.845Z,1016.62
2017-09-25T05:56:08.450Z,1016.63
2017-09-25T05:57:18.055Z,1016.63
2017-09-25T05:58:27.085Z,1016.63
2017-09-25T05:59:36.390Z,1016.66
2017-09-25T06:00:45.057Z,1016.62
2017-09-25T06:01:54.045Z,1016.62
2017-09-25T06:03:03.350Z,1016.61
2017-09-25T06:04:12.341Z,1016.61
2017-09-25T06:05:21.346Z,1016.6
2017-09-25T06:06:30.348Z,1016.6
2017-09-25T06:07:39.040Z,1016.63
2017-09-25T06:08:48.018Z,1016.58
2017-09-25T06:09:56.995Z,1016.58
2017-09-25T06:11:05.675Z,1016.55
2017-09-25T06:12:14.334Z,1016.55
2017-09-25T06:13:23.635Z,1016.58
2017-09-25T06:14:32.762Z,1016.54
2017-09-25T06:15:42.680Z,1016.54
2017-09-25T06:16:51.686Z,1016.51
2017-09-25T06:18:01.005Z,1016.57
2017-09-25T06:19:09.705Z,1016.6
2017-09-25T06:20:19.483Z,1016.6
2017-09-25T06:21:28.469Z,1016.63
2017-09-25T06:22:37.155Z,1016.68
2017-09-25T06:23:45.836Z,1016.66
2017-09-25T06:24:55.456Z,1016.69
2017-09-25T06:26:04.284Z,1016.67
2017-09-25T06:27:13.270Z,1016.7
2017-09-25T06:28:21.967Z,1016.67
2017-09-25T06:29:30.971Z,1016.7
2017-09-25T06:30:39.662Z,1016.67
2017-09-25T06:31:48.389Z,1016.67
2017-09-25T06:32:57.371Z,1016.68
2017-09-25T06:34:06.985Z,1016.69
2017-09-25T06:35:16.310Z,1016.67
2017-09-25T06:36:24.982Z,1016.71
2017-09-25T06:37:34.729Z,1016.74
2017-09-25T06:38:44.038Z,1016.74
2017-09-25T06:39:53.016Z,1016.78
2017-09-25T06:41:02.309Z,1016.72
2017-09-25T06:42:11.588Z,1016.77
2017-09-25T06:43:21.357Z,1016.78
2017-09-25T06:44:30.340Z,1016.78
2017-09-25T06:45:39.836Z,1016.77
2017-09-25T06:46:49.062Z,1016.82
2017-09-25T06:47:58.212Z,1016.83
2017-09-25T06:49:07.513Z,1016.86
2017-09-25T06:50:16.751Z,1016.85
2017-09-25T06:51:28.944Z,1016.87
2017-09-25T06:52:37.947Z,1016.83
2017-09-25T06:53:46.962Z,1016.88
2017-09-25T06:54:56.317Z,1016.87
2017-09-25T06:56:05.345Z,1016.86
2017-09-25T06:57:14.005Z,1016.88
2017-09-25T06:58:22.996Z,1016.86
2017-09-25T06:59:32.295Z,1016.87
2017-09-25T07:00:41.279Z,1016.87
2017-09-25T07:01:50.581Z,1016.91
2017-09-25T07:02:59.239Z,1016.91
2017-09-25T07:04:08.251Z,1016.91
2017-09-25T07:05:17.233Z,1016.87
2017-09-25T07:06:25.928Z,1016.9
2017-09-25T07:07:34.929Z,1016.94
2017-09-25T07:08:44.839Z,1016.91
2017-09-25T07:09:54.475Z,1016.93
2017-09-25T07:11:03.140Z,1016.94
2017-09-25T07:12:12.103Z,1016.91
2017-09-25T07:13:20.791Z,1016.88
2017-09-25T07:14:29.791Z,1016.88
2017-09-25T07:15:39.724Z,1016.88
2017-09-25T07:16:49.333Z,1016.86
2017-09-25T07:17:58.642Z,1016.8
2017-09-25T07:19:07.965Z,1016.79
2017-09-25T07:20:16.945Z,1016.82
2017-09-25T07:21:26.240Z,1016.79
2017-09-25T07:22:35.612Z,1016.77
2017-09-25T07:23:44.301Z,1016.78
2017-09-25T07:24:53.310Z,1016.75
2017-09-25T07:26:02.812Z,1016.76
2017-09-25T07:27:12.114Z,1016.76
2017-09-25T07:28:21.423Z,1016.79
2017-09-25T07:29:30.110Z,1016.81
2017-09-25T07:30:39.724Z,1016.84
2017-09-25T07:31:49.368Z,1016.89
2017-09-25T07:32:58.668Z,1016.87
2017-09-25T07:34:07.532Z,1016.89
2017-09-25T07:35:16.260Z,1016.89
2017-09-25T07:36:26.011Z,1016.86
2017-09-25T07:37:35.070Z,1016.85
2017-09-25T07:38:44.818Z,1016.88
2017-09-25T07:39:53.827Z,1016.83
2017-09-25T07:41:02.802Z,1016.83
2017-09-25T07:42:11.789Z,1016.83
2017-09-25T07:43:20.464Z,1016.87
2017-09-25T07:44:29.120Z,1016.81
2017-09-25T07:45:38.419Z,1016.82
2017-09-25T07:46:47.386Z,1016.77
2017-09-25T07:47:56.674Z,1016.77
2017-09-25T07:49:05.361Z,1016.74
2017-09-25T07:50:14.353Z,1016.72
2017-09-25T07:51:23.949Z,1016.73
2017-09-25T07:52:33.669Z,1016.71
2017-09-25T07:53:42.701Z,1016.74
2017-09-25T07:54:51.702Z,1016.78
2017-09-25T07:56:00.375Z,1016.75
2017-09-25T07:57:09.414Z,1016.74
2017-09-25T07:58:18.766Z,1016.78
2017-09-25T07:59:28.292Z,1016.78
2017-09-25T08:00:37.605Z,1016.77
2017-09-25T08:01:47.530Z,1016.8
2017-09-25T08:02:57.170Z,1016.78
2017-09-25T08:04:05.935Z,1016.79
2017-09-25T08:05:14.600Z,1016.76
2017-09-25T08:06:23.580Z,1016.78
2017-09-25T08:07:32.271Z,1016.76
2017-09-25T08:08:41.258Z,1016.78
2017-09-25T08:09:50.904Z,1016.77
2017-09-25T08:10:59.572Z,1016.78
2017-09-25T08:12:08.260Z,1016.76
2017-09-25T08:13:17.339Z,1016.75
2017-09-25T08:14:26.041Z,1016.78
2017-09-25T08:15:35.332Z,1016.8
2017-09-25T08:16:43.989Z,1016.78
2017-09-25T08:17:52.968Z,1016.81
2017-09-25T08:19:01.967Z,1016.8
2017-09-25T08:20:12.222Z,1016.78
2017-09-25T08:21:21.193Z,1016.83
2017-09-25T08:22:30.207Z,1016.8
2017-09-25T08:23:39.196Z,1016.77
2017-09-25T08:24:47.861Z,1016.78
2017-09-25T08:25:56.535Z,1016.79
2017-09-25T08:27:05.817Z,1016.81
2017-09-25T08:28:15.126Z,1016.82
2017-09-25T08:29:24.163Z,1016.74
2017-09-25T08:30:33.178Z,1016.77
2017-09-25T08:31:42.482Z,1016.75
2017-09-25T08:32:51.482Z,1016.73
2017-09-25T08:34:01.086Z,1016.74
2017-09-25T08:35:10.709Z,1016.75
2017-09-25T08:36:19.701Z,1016.74
2017-09-25T08:37:29.072Z,1016.73
2017-09-25T08:38:38.125Z,1016.73
2017-09-25T08:39:47.100Z,1016.74
2017-09-25T08:40:55.814Z,1016.76
2017-09-25T08:42:05.451Z,1016.76
2017-09-25T08:43:15.097Z,1016.74
2017-09-25T08:44:24.428Z,1016.76
2017-09-25T08:45:33.426Z,1016.76
2017-09-25T08:46:42.751Z,1016.74
2017-09-25T08:47:51.728Z,1016.72
2017-09-25T08:49:01.341Z,1016.69
2017-09-25T08:50:10.388Z,1016.68
2017-09-25T08:51:19.378Z,1016.7
2017-09-25T08:52:28.390Z,1016.68
2017-09-25T08:53:37.723Z,1016.71
2017-09-25T08:54:46.713Z,1016.73
2017-09-25T08:55:55.369Z,1016.71
2017-09-25T08:57:04.649Z,1016.74
2017-09-25T08:58:13.945Z,1016.7
2017-09-25T08:59:23.519Z,1016.7
2017-09-25T09:00:32.182Z,1016.7
2017-09-25T09:01:40.864Z,1016.68
2017-09-25T09:02:49.516Z,1016.66
2017-09-25T09:03:58.855Z,1016.68
2017-09-25T09:05:07.519Z,1016.67
2017-09-25T09:06:16.531Z,1016.65
2017-09-25T09:07:25.864Z,1016.67
2017-09-25T09:08:34.845Z,1016.68
2017-09-25T09:09:44.146Z,1016.67
2017-09-25T09:10:53.113Z,1016.66
2017-09-25T09:12:02.105Z,1016.64
2017-09-25T09:13:11.591Z,1016.65
2017-09-25T09:14:20.574Z,1016.62
2017-09-25T09:15:29.544Z,1016.64
2017-09-25T09:16:38.543Z,1016.64
2017-09-25T09:17:47.868Z,1016.64
2017-09-25T09:18:56.853Z,1016.64
2017-09-25T09:20:05.875Z,1016.65
2017-09-25T09:21:14.870Z,1016.69
2017-09-25T09:22:24.490Z,1016.69
2017-09-25T09:23:33.176Z,1016.67
2017-09-25T09:24:41.846Z,1016.72
2017-09-25T09:25:51.172Z,1016.73
2017-09-25T09:27:00.196Z,1016.72
2017-09-25T09:28:09.494Z,1016.73
2017-09-25T09:29:18.152Z,1016.71
2017-09-25T09:30:27.463Z,1016.7
2017-09-25T09:31:36.485Z,1016.74
2017-09-25T09:32:46.136Z,1016.73
2017-09-25T09:33:55.427Z,1016.7
2017-09-25T09:35:04.723Z,1016.67
2017-09-25T09:36:14.360Z,1016.66
2017-09-25T09:37:23.374Z,1016.64
2017-09-25T09:38:32.374Z,1016.61
2017-09-25T09:39:41.056Z,1016.6
2017-09-25T09:40:50.365Z,1016.63
2017-09-25T09:41:59.674Z,1016.58
2017-09-25T09:43:09.039Z,1016.56
2017-09-25T09:44:18.680Z,1016.59
2017-09-25T09:45:27.348Z,1016.62
2017-09-25T09:46:36.657Z,1016.6
2017-09-25T09:47:45.659Z,1016.59
2017-09-25T09:48:55.308Z,1016.57
2017-09-25T09:50:04.631Z,1016.58
2017-09-25T09:51:13.670Z,1016.56
2017-09-25T09:52:22.967Z,1016.59
2017-09-25T09:53:31.648Z,1016.55
2017-09-25T09:54:41.306Z,1016.57
2017-09-25T09:55:50.925Z,1016.54
2017-09-25T09:56:59.973Z,1016.51
2017-09-25T09:58:09.589Z,1016.49
2017-09-25T09:59:18.901Z,1016.51
2017-09-25T10:00:27.889Z,1016.45
2017-09-25T10:01:36.907Z,1016.48
2017-09-25T10:02:46.218Z,1016.45
2017-09-25T10:03:55.528Z,1016.44
2017-09-25T10:05:05.150Z,1016.43
2017-09-25T10:06:14.149Z,1016.43
2017-09-25T10:07:23.461Z,1016.47
2017-09-25T10:08:32.766Z,1016.41
2017-09-25T10:09:41.906Z,1016.44
2017-09-25T10:10:51.200Z,1016.48
2017-09-25T10:12:00.422Z,1016.44
2017-09-25T10:13:09.400Z,1016.44
2017-09-25T10:14:18.710Z,1016.46
2017-09-25T10:15:27.711Z,1016.44
2017-09-25T10:16:36.688Z,1016.41
2017-09-25T10:17:46.010Z,1016.43
2017-09-25T10:18:55.340Z,1016.43
2017-09-25T10:20:04.966Z,1016.44
2017-09-25T10:21:14.262Z,1016.4
2017-09-25T10:22:22.931Z,1016.38
2017-09-25T10:23:31.609Z,1016.4
2017-09-25T10:24:40.894Z,1016.4
2017-09-25T10:25:49.557Z,1016.41
2017-09-25T10:26:59.482Z,1016.34
2017-09-25T10:28:08.843Z,1016.37
2017-09-25T10:29:18.459Z,1016.37
2017-09-25T10:30:27.489Z,1016.37
2017-09-25T10:31:37.119Z,1016.34
2017-09-25T10:32:46.115Z,1016.34
2017-09-25T10:33:55.082Z,1016.32
2017-09-25T10:35:03.743Z,1016.26
2017-09-25T10:36:12.732Z,1016.3
2017-09-25T10:37:21.526Z,1016.25
2017-09-25T10:38:30.190Z,1016.24
2017-09-25T10:39:39.174Z,1016.24
2017-09-25T10:40:48.148Z,1016.25
2017-09-25T10:41:57.436Z,1016.22
2017-09-25T10:43:06.743Z,1016.23
2017-09-25T10:44:16.039Z,1016.19
2017-09-25T10:45:25.331Z,1016.21
2017-09-25T10:46:34.005Z,1016.21
2017-09-25T10:47:42.687Z,1016.15
2017-09-25T10:48:51.686Z,1016.19
2017-09-25T10:50:00.665Z,1016.19
2017-09-25T10:51:10.144Z,1016.18
2017-09-25T10:52:18.867Z,1016.15
2017-09-25T10:53:28.843Z,1016.18
2017-09-25T10:54:37.512Z,1016.16
2017-09-25T10:55:46.815Z,1016.16
2017-09-25T10:56:56.123Z,1016.17
2017-09-25T10:58:04.789Z,1016.16
2017-09-25T10:59:13.589Z,1016.17
2017-09-25T11:00:22.597Z,1016.12
2017-09-25T11:01:31.930Z,1016.14
2017-09-25T11:02:40.902Z,1016.11
2017-09-25T11:03:50.200Z,1016.07
2017-09-25T11:04:59.194Z,1016.12
2017-09-25T11:06:08.490Z,1016.1
2017-09-25T11:07:17.478Z,1016.08
2017-09-25T11:08:26.562Z,1016.06
2017-09-25T11:09:35.232Z,1016.06
2017-09-25T11:10:44.544Z,1016.04
2017-09-25T11:11:53.626Z,1016.05
2017-09-25T11:13:02.321Z,1016.01
2017-09-25T11:14:11.004Z,1016.01
2017-09-25T11:15:20.335Z,1015.99
2017-09-25T11:16:29.324Z,1015.97
2017-09-25T11:17:38.969Z,1015.99
2017-09-25T11:18:47.963Z,1015.94
2017-09-25T11:19:57.270Z,1015.98
2017-09-25T11:21:06.268Z,1015.94
2017-09-25T11:22:15.246Z,1015.94
2017-09-25T11:23:24.243Z,1015.9
2017-09-25T11:24:33.574Z,1015.91
2017-09-25T11:25:42.916Z,1015.92
2017-09-25T11:26:51.892Z,1015.94
2017-09-25T11:28:01.192Z,1015.92
2017-09-25T11:29:10.184Z,1015.9
2017-09-25T11:30:18.843Z,1015.88
2017-09-25T11:31:28.141Z,1015.84
2017-09-25T11:32:37.426Z,1015.86
2017-09-25T11:33:46.710Z,1015.86
2017-09-25T11:34:56.332Z,1015.88
2017-09-25T11:36:04.985Z,1015.88
2017-09-25T11:37:14.292Z,1015.87
2017-09-25T11:38:22.966Z,1015.86
2017-09-25T11:39:32.250Z,1015.83
2017-09-25T11:40:41.575Z,1015.85
2017-09-25T11:41:50.882Z,1015.79
2017-09-25T11:42:59.543Z,1015.85
2017-09-25T11:44:08.854Z,1015.87
2017-09-25T11:45:18.448Z,1015.84
2017-09-25T11:46:27.442Z,1015.88
2017-09-25T11:47:36.467Z,1015.85
2017-09-25T11:48:45.125Z,1015.88
2017-09-25T11:49:54.112Z,1015.84
2017-09-25T11:51:03.724Z,1015.88
2017-09-25T11:52:12.694Z,1015.84
2017-09-25T11:53:21.987Z,1015.84
2017-09-25T11:54:30.694Z,1015.87
2017-09-25T11:55:40.120Z,1015.83
2017-09-25T11:56:49.404Z,1015.83
2017-09-25T11:57:58.396Z,1015.81
2017-09-25T11:59:07.060Z,1015.81
2017-09-25T12:00:16.050Z,1015.81
2017-09-25T12:01:25.034Z,1015.79
2017-09-25T12:02:33.729Z,1015.84
2017-09-25T12:03:43.037Z,1015.81
2017-09-25T12:04:52.325Z,1015.81
2017-09-25T12:06:01.314Z,1015.78
2017-09-25T12:07:10.604Z,1015.75
2017-09-25T12:08:19.586Z,1015.77
2017-09-25T12:09:28.888Z,1015.8
2017-09-25T12:10:37.870Z,1015.75
2017-09-25T12:11:47.168Z,1015.76
2017-09-25T12:12:56.484Z,1015.73
2017-09-25T12:14:05.771Z,1015.74
2017-09-25T12:15:14.736Z,1015.73
2017-09-25T12:16:24.060Z,1015.74
2017-09-25T12:17:33.087Z,1015.72
2017-09-25T12:18:42.064Z,1015.72
2017-09-25T12:19:51.373Z,1015.68
2017-09-25T12:21:00.377Z,1015.68
2017-09-25T12:22:09.355Z,1015.67
2017-09-25T12:23:18.025Z,1015.64
2017-09-25T12:24:27.645Z,1015.68
2017-09-25T12:25:36.929Z,1015.63
2017-09-25T12:26:45.581Z,1015.64
2017-09-25T12:27:54.249Z,1015.68
2017-09-25T12:29:02.924Z,1015.67
2017-09-25T12:30:11.595Z,1015.67
2017-09-25T12:31:20.574Z,1015.65
2017-09-25T12:32:29.557Z,1015.63
2017-09-25T12:33:38.537Z,1015.65
2017-09-25T12:34:47.502Z,1015.61
2017-09-25T12:35:56.520Z,1015.65
2017-09-25T12:37:05.515Z,1015.62
2017-09-25T12:38:14.503Z,1015.59
2017-09-25T12:39:23.495Z,1015.57
2017-09-25T12:40:32.463Z,1015.62
2017-09-25T12:41:41.765Z,1015.6
2017-09-25T12:42:50.771Z,1015.6
2017-09-25T12:44:00.071Z,1015.62
2017-09-25T12:45:09.061Z,1015.6
2017-09-25T12:46:17.730Z,1015.57
2017-09-25T12:47:26.727Z,1015.52
2017-09-25T12:48:35.746Z,1015.53
2017-09-25T12:49:44.744Z,1015.5
2017-09-25T12:50:54.376Z,1015.5
2017-09-25T12:52:03.354Z,1015.54
2017-09-25T12:53:12.966Z,1015.52
2017-09-25T12:54:22.299Z,1015.51
2017-09-25T12:55:31.032Z,1015.47
2017-09-25T12:56:40.330Z,1015.54
2017-09-25T12:57:49.330Z,1015.54
2017-09-25T12:58:58.644Z,1015.55
2017-09-25T13:00:07.932Z,1015.54
2017-09-25T13:01:16.613Z,1015.51
2017-09-25T13:02:25.910Z,1015.56
2017-09-25T13:03:34.640Z,1015.53
2017-09-25T13:04:43.951Z,1015.54
2017-09-25T13:05:52.942Z,1015.52
2017-09-25T13:07:01.608Z,1015.51
2017-09-25T13:08:10.268Z,1015.51
2017-09-25T13:09:19.791Z,1015.49
2017-09-25T13:10:28.927Z,1015.47
2017-09-25T13:11:37.598Z,1015.5
2017-09-25T13:12:46.612Z,1015.46
2017-09-25T13:13:55.595Z,1015.46
2017-09-25T13:15:05.222Z,1015.48
2017-09-25T13:16:14.744Z,1015.44
2017-09-25T13:17:24.048Z,1015.46
2017-09-25T13:18:32.728Z,1015.43
2017-09-25T13:19:41.744Z,1015.47
2017-09-25T13:20:50.725Z,1015.43
2017-09-25T13:21:59.375Z,1015.43
2017-09-25T13:23:08.657Z,1015.4
2017-09-25T13:24:17.644Z,1015.4
2017-09-25T13:25:26.940Z,1015.42
2017-09-25T13:26:35.937Z,1015.42
2017-09-25T13:27:45.263Z,1015.4
2017-09-25T13:28:54.881Z,1015.41
2017-09-25T13:30:03.900Z,1015.42
2017-09-25T13:31:12.575Z,1015.4
2017-09-25T13:32:21.565Z,1015.43
2017-09-25T13:33:30.605Z,1015.42
2017-09-25T13:34:39.984Z,1015.4
2017-09-25T13:35:48.826Z,1015.42
2017-09-25T13:36:58.153Z,1015.33
2017-09-25T13:38:07.449Z,1015.39
2017-09-25T13:39:16.128Z,1015.4
2017-09-25T13:40:24.818Z,1015.4
2017-09-25T13:41:34.141Z,1015.41
2017-09-25T13:42:43.694Z,1015.4
2017-09-25T13:43:52.690Z,1015.41
2017-09-25T13:45:02.011Z,1015.36
2017-09-25T13:46:11.662Z,1015.39
2017-09-25T13:47:20.673Z,1015.44
2017-09-25T13:48:30.302Z,1015.38
2017-09-25T13:49:39.354Z,1015.37
2017-09-25T13:50:48.101Z,1015.35
2017-09-25T13:51:57.109Z,1015.33
2017-09-25T13:53:06.090Z,1015.34
2017-09-25T13:54:14.749Z,1015.3
2017-09-25T13:55:24.053Z,1015.34
2017-09-25T13:56:33.678Z,1015.33
2017-09-25T13:57:42.978Z,1015.33